Time;durP1;ratioP1;P1;durP2;ratioP2;P2;SDS_P1;SDS_P2;PMS_P1;PMS_P2;Temp;Humidity;BMP_temperature;BMP_pressure;BME280_temperature;BME280_humidity;BME280_pressure;Samples;Min_cycle;Max_cycle;Signal;HPM_P1;HPM_P2
2021/10/06 00:02:32;;;;;;;;;21.00;20.00;;;;;19.46;48.48;98697.47;6186682;28;98181;-65
2021/10/06 00:05:37;;;;;;;;;19.00;18.00;;;;;19.39;48.77;98694.22;6189305;28;97301;-66
2021/10/06 00:08:40;;;;;;;;;17.40;16.00;;;;;19.38;48.83;98684.38;6171306;28;97863;-65
2021/10/06 00:11:44;;;;;;;;;17.50;16.00;;;;;19.40;48.89;98682.16;6168219;28;96675;-65
2021/10/06 00:14:47;;;;;;;;;18.40;18.00;;;;;19.36;48.88;98707.59;6190000;28;98205;-65
2021/10/06 00:17:57;;;;;;;;;18.00;17.00;;;;;19.44;48.58;98693.38;6189636;28;97510;-66
2021/10/06 00:21:02;;;;;;;;;15.80;15.00;;;;;19.50;48.34;98689.50;6188839;28;96534;-66
2021/10/06 00:24:06;;;;;;;;;15.00;13.60;;;;;19.54;47.87;98689.78;6182236;28;96751;-66
2021/10/06 00:27:09;;;;;;;;;17.20;16.20;;;;;19.57;48.03;98689.19;6189766;28;96563;-65
2021/10/06 00:30:13;;;;;;;;;17.50;16.75;;;;;19.63;47.65;98685.31;6189682;28;97333;-66
2021/10/06 00:33:16;;;;;;;;;17.40;17.00;;;;;19.63;47.55;98686.13;6189371;28;97133;-67
2021/10/06 00:36:21;;;;;;;;;16.00;16.00;;;;;19.72;47.22;98700.00;6189093;28;96870;-66
2021/10/06 00:39:24;;;;;;;;;15.00;14.00;;;;;19.78;47.24;98690.66;6183858;28;96581;-65
2021/10/06 00:42:28;;;;;;;;;20.00;17.00;;;;;19.87;46.75;98694.41;6167346;28;96681;-67
2021/10/06 00:45:31;;;;;;;;;17.00;14.67;;;;;19.88;46.74;98685.13;6170367;28;97484;-66
2021/10/06 00:48:35;;;;;;;;;14.00;13.60;;;;;19.97;46.72;98688.84;6188857;28;96606;-66
2021/10/06 00:51:40;;;;;;;;;15.00;14.00;;;;;19.95;46.51;98677.38;6189353;28;97052;-66
2021/10/06 00:54:44;;;;;;;;;15.60;15.00;;;;;19.97;46.54;98688.03;6170787;28;99731;-66
2021/10/06 00:57:48;;;;;;;;;18.00;17.00;;;;;20.03;46.24;98700.59;6187358;28;96789;-66
2021/10/06 01:00:51;;;;;;;;;14.60;14.60;;;;;20.13;45.78;98693.09;6186590;28;96596;-65
2021/10/06 01:03:55;;;;;;;;;14.50;14.00;;;;;20.22;45.84;98688.63;6184517;28;96584;-66
2021/10/06 01:07:00;;;;;;;;;17.80;14.80;;;;;20.26;45.58;98691.59;6181814;28;97012;-67
2021/10/06 01:10:05;;;;;;;;;14.00;13.00;;;;;20.26;45.72;98689.66;6169683;28;97807;-67
2021/10/06 01:13:11;;;;;;;;;15.00;14.00;;;;;20.20;46.07;98684.53;6169982;28;96973;-66
2021/10/06 01:16:14;;;;;;;;;14.00;14.00;;;;;20.16;46.19;98678.81;6189065;28;96427;-65
2021/10/06 01:19:20;;;;;;;;;17.00;14.80;;;;;20.16;46.14;98673.34;6152683;28;97699;-65
2021/10/06 01:22:25;;;;;;;;;14.00;13.00;;;;;20.21;46.41;98672.47;6169640;28;97721;-66
2021/10/06 01:25:28;;;;;;;;;17.00;15.00;;;;;20.26;46.34;98675.16;6188442;28;96646;-66
2021/10/06 01:28:34;;;;;;;;;14.00;13.00;;;;;20.33;46.35;98674.88;6185627;28;98106;-65
2021/10/06 01:31:37;;;;;;;;;14.00;13.00;;;;;20.40;45.60;98678.06;6165878;28;96776;-66
2021/10/06 01:34:41;;;;;;;;;15.00;13.60;;;;;20.45;45.57;98684.28;6164612;28;97535;-66
2021/10/06 01:37:46;;;;;;;;;14.00;13.00;;;;;20.52;45.62;98682.03;6183675;28;96483;-65
2021/10/06 01:40:50;;;;;;;;;13.75;13.75;;;;;20.50;46.20;98673.28;6164827;28;96780;-65
2021/10/06 01:43:53;;;;;;;;;13.80;12.20;;;;;20.55;46.51;98688.84;6167701;28;97337;-66
2021/10/06 01:46:56;;;;;;;;;15.00;14.00;;;;;20.56;46.70;98694.03;6185642;28;96687;-65
2021/10/06 01:50:03;;;;;;;;;14.80;12.60;;;;;20.59;46.31;98693.44;6186432;28;96449;-66
2021/10/06 01:53:09;;;;;;;;;15.00;13.20;;;;;20.52;46.74;98698.47;6178219;28;97119;-66
2021/10/06 01:56:13;;;;;;;;;17.00;15.00;;;;;20.56;46.83;98696.78;6163628;28;96691;-66
2021/10/06 01:59:16;;;;;;;;;15.00;13.00;;;;;20.64;47.46;98711.75;6169682;28;96648;-65
2021/10/06 02:02:20;;;;;;;;;15.00;14.00;;;;;20.61;46.49;98701.38;6169033;28;97364;-66
2021/10/06 02:05:23;;;;;;;;;15.80;14.80;;;;;20.62;46.99;98708.50;6169588;28;97910;-66
2021/10/06 02:08:28;;;;;;;;;14.00;13.40;;;;;20.64;46.35;98709.00;6187554;28;96580;-66
2021/10/06 02:11:31;;;;;;;;;14.00;13.80;;;;;20.65;46.19;98697.75;6187253;28;96526;-66
2021/10/06 02:14:34;;;;;;;;;14.40;12.00;;;;;20.68;47.02;98699.09;6186946;28;97563;-65
2021/10/06 02:17:37;;;;;;;;;13.75;13.75;;;;;20.70;46.84;98702.38;6183290;28;97406;-66
2021/10/06 02:20:40;;;;;;;;;11.00;11.00;;;;;20.72;45.87;98700.16;6187606;28;96578;-65
2021/10/06 02:23:46;;;;;;;;;11.50;11.00;;;;;20.70;45.86;98697.72;6169192;28;99711;-66
2021/10/06 02:26:49;;;;;;;;;12.00;11.00;;;;;20.80;46.46;98693.22;6168299;28;96560;-66
2021/10/06 02:29:53;;;;;;;;;13.00;12.00;;;;;20.84;47.30;98692.31;6187293;28;97465;-65
2021/10/06 02:32:56;;;;;;;;;13.00;12.00;;;;;20.91;46.67;98687.31;6159227;28;97511;-66
2021/10/06 02:36:00;;;;;;;;;12.00;12.00;;;;;20.94;46.14;98674.94;6176085;28;97162;-65
2021/10/06 02:39:05;;;;;;;;;12.00;11.00;;;;;20.93;47.66;98678.78;6187059;28;97558;-66
2021/10/06 02:42:09;;;;;;;;;13.50;12.00;;;;;20.95;47.49;98673.84;6187230;28;97616;-66
2021/10/06 02:45:13;;;;;;;;;14.00;13.00;;;;;20.93;47.82;98670.56;6186919;28;96546;-65
2021/10/06 02:48:17;;;;;;;;;14.00;13.00;;;;;20.90;47.32;98674.72;6169062;28;98519;-66
2021/10/06 02:51:20;;;;;;;;;15.25;14.25;;;;;20.89;47.91;98675.81;6155980;28;96994;-67
2021/10/06 02:54:25;;;;;;;;;13.00;12.00;;;;;20.87;47.54;98672.56;6185955;28;97500;-67
2021/10/06 02:57:28;;;;;;;;;12.00;10.60;;;;;20.86;48.58;98665.47;6159491;28;98518;-65
2021/10/06 03:00:31;;;;;;;;;12.00;11.00;;;;;20.91;47.04;98670.06;6186152;28;97625;-66
2021/10/06 03:03:35;;;;;;;;;11.40;11.40;;;;;20.92;46.48;98680.69;6177480;28;97017;-65
2021/10/06 03:06:38;;;;;;;;;10.80;10.00;;;;;20.95;45.95;98682.88;6182316;28;98145;-66
2021/10/06 03:09:42;;;;;;;;;12.00;10.80;;;;;21.03;46.67;98687.69;6184868;28;97204;-66
2021/10/06 03:12:46;;;;;;;;;12.00;11.00;;;;;21.00;47.26;98688.28;6185293;28;97411;-66
2021/10/06 03:15:51;;;;;;;;;14.00;12.00;;;;;;;;6161665;28;99719;-66
2021/10/06 03:18:55;;;;;;;;;13.00;12.00;;;;;20.89;49.33;98688.69;6185139;28;97234;-65
2021/10/06 03:21:58;;;;;;;;;13.75;12.50;;;;;20.82;49.59;98685.53;6184602;28;96620;-67
2021/10/06 03:25:05;;;;;;;;;15.00;15.00;;;;;20.74;49.73;98686.97;6178884;28;96777;-67
2021/10/06 03:28:09;;;;;;;;;15.00;15.00;;;;;20.61;49.55;98672.06;6167384;28;96826;-66
2021/10/06 03:31:12;;;;;;;;;17.40;16.00;;;;;20.53;48.99;98677.34;6188139;28;96950;-66
2021/10/06 03:34:15;;;;;;;;;16.00;14.00;;;;;20.48;49.10;98710.28;6186180;28;97876;-65
2021/10/06 03:37:19;;;;;;;;;17.00;15.00;;;;;20.35;49.21;98709.03;6181918;28;96459;-66
2021/10/06 03:40:23;;;;;;;;;18.00;17.00;;;;;20.33;48.10;98713.97;6176556;28;97515;-66
2021/10/06 03:43:27;;;;;;;;;17.60;16.00;;;;;20.24;48.43;98715.69;6173639;28;97149;-65
2021/10/06 03:46:30;;;;;;;;;19.00;16.00;;;;;20.15;48.33;98720.97;6166718;28;97939;-66
2021/10/06 03:49:33;;;;;;;;;20.00;17.00;;;;;20.07;48.34;98718.88;6177531;28;97222;-65
2021/10/06 03:52:37;;;;;;;;;18.00;17.00;;;;;20.04;48.57;98724.09;6184198;28;96619;-66
2021/10/06 03:55:41;;;;;;;;;18.20;16.00;;;;;19.97;48.41;98729.91;6191940;28;98204;-66
2021/10/06 03:58:45;;;;;;;;;17.75;16.75;;;;;19.94;48.41;98729.66;6181207;28;96529;-66
2021/10/06 04:01:49;;;;;;;;;19.60;17.00;;;;;19.84;49.00;98736.03;6181324;28;96719;-67
2021/10/06 04:04:52;;;;;;;;;17.40;17.40;;;;;19.72;49.09;98749.25;6183784;28;97154;-66
2021/10/06 04:07:55;;;;;;;;;20.40;18.60;;;;;19.72;49.58;98754.72;6188090;28;97640;-67
2021/10/06 04:11:00;;;;;;;;;21.00;20.00;;;;;19.68;49.90;98759.13;6185128;28;98427;-65
2021/10/06 04:14:03;;;;;;;;;19.40;17.40;;;;;19.67;49.87;98754.75;6170966;28;98592;-65
2021/10/06 04:17:07;;;;;;;;;19.40;17.40;;;;;19.54;50.00;98758.13;6169705;28;96780;-67
2021/10/06 04:20:11;;;;;;;;;18.67;18.00;;;;;19.39;50.51;98753.53;6187025;28;96665;-66
2021/10/06 04:23:14;;;;;;;;;17.00;16.60;;;;;19.24;51.00;98753.63;6182102;28;96904;-66
2021/10/06 04:26:19;;;;;;;;;19.67;17.67;;;;;19.17;51.13;98764.03;6183886;28;97325;-66
2021/10/06 04:29:22;;;;;;;;;17.25;16.25;;;;;19.14;51.48;98767.31;6182382;28;96587;-66
2021/10/06 04:32:25;;;;;;;;;19.00;18.00;;;;;19.10;51.47;98755.31;6182001;28;96734;-65
2021/10/06 04:35:28;;;;;;;;;20.00;19.00;;;;;19.19;51.29;98770.03;6176974;28;97431;-66
2021/10/06 04:38:34;;;;;;;;;20.60;18.40;;;;;19.23;51.61;98768.38;6181527;28;97196;-67
2021/10/06 04:41:39;;;;;;;;;22.25;19.75;;;;;19.24;51.51;98770.00;6185509;28;96747;-65
2021/10/06 04:44:42;;;;;;;;;21.00;20.00;;;;;19.19;51.60;98768.13;6186739;28;96493;-67
2021/10/06 04:47:46;;;;;;;;;19.00;18.00;;;;;19.09;51.83;98770.06;6152166;28;99472;-65
2021/10/06 04:50:49;;;;;;;;;18.00;16.75;;;;;19.09;52.09;98770.91;6176970;28;97547;-66
2021/10/06 04:53:52;;;;;;;;;18.00;17.75;;;;;19.13;51.99;98774.69;6188346;28;97313;-65
2021/10/06 04:56:57;;;;;;;;;23.00;19.00;;;;;19.16;51.93;98795.16;6186950;28;97448;-65
2021/10/06 05:00:00;;;;;;;;;18.20;16.20;;;;;19.13;51.65;98785.63;6163742;28;99960;-65
2021/10/06 05:03:07;;;;;;;;;20.50;18.75;;;;;19.13;51.72;98780.16;6168452;28;98498;-67
2021/10/06 05:06:11;;;;;;;;;18.80;17.00;;;;;19.20;52.09;98779.88;6182085;28;97932;-67
2021/10/06 05:09:15;;;;;;;;;24.00;18.40;;;;;19.16;51.77;98785.06;6189128;28;96502;-65
2021/10/06 05:12:20;;;;;;;;;22.20;18.60;;;;;19.17;52.20;98789.44;6171595;28;97541;-66
2021/10/06 05:15:24;;;;;;;;;18.60;18.00;;;;;19.16;52.14;98806.09;6170846;28;96765;-66
2021/10/06 05:18:27;;;;;;;;;18.60;17.20;;;;;19.12;52.02;98794.91;6187743;28;96984;-67
2021/10/06 05:21:31;;;;;;;;;18.40;17.40;;;;;19.11;52.25;98792.50;6187522;28;96727;-65
2021/10/06 05:24:34;;;;;;;;;19.60;18.00;;;;;19.09;52.76;98794.66;6189752;28;96669;-66
2021/10/06 05:27:39;;;;;;;;;19.00;18.00;;;;;19.04;52.30;98792.78;6169277;28;97206;-67
2021/10/06 05:30:43;;;;;;;;;19.60;17.60;;;;;19.05;52.40;98802.63;6169400;28;97489;-66
2021/10/06 05:33:47;;;;;;;;;19.75;17.00;;;;;19.10;52.42;98807.25;6187133;28;97154;-67
2021/10/06 05:36:51;;;;;;;;;18.00;18.00;;;;;19.17;52.54;98813.22;6188041;28;96947;-67
2021/10/06 05:39:54;;;;;;;;;19.67;18.00;;;;;19.22;52.64;98815.94;6188199;28;97453;-67
2021/10/06 05:42:59;;;;;;;;;15.80;15.00;;;;;19.24;52.99;98822.75;6170891;28;97578;-67
2021/10/06 05:46:02;;;;;;;;;18.60;16.00;;;;;19.28;52.83;98829.31;6182536;28;97336;-66
2021/10/06 05:49:05;;;;;;;;;17.80;17.00;;;;;19.23;52.99;98815.66;6154987;28;97236;-70
2021/10/06 05:52:09;;;;;;;;;19.40;18.00;;;;;19.34;53.23;98833.66;6183892;28;96600;-71
2021/10/06 05:55:12;;;;;;;;;21.00;18.50;;;;;19.28;53.30;98818.38;6165952;28;100053;-71
2021/10/06 05:58:18;;;;;;;;;18.00;17.00;;;;;19.35;53.52;98827.06;6187778;28;96496;-70
2021/10/06 06:01:21;;;;;;;;;19.00;17.40;;;;;19.32;52.92;98841.31;6173567;28;97039;-69
2021/10/06 06:04:25;;;;;;;;;21.25;18.25;;;;;19.38;53.11;98840.19;6184022;28;96659;-69
2021/10/06 06:07:28;;;;;;;;;18.60;17.60;;;;;19.26;52.59;98820.56;6164966;28;97236;-70
2021/10/06 06:10:32;;;;;;;;;18.00;17.40;;;;;19.39;52.41;98851.94;6181260;28;96958;-70
2021/10/06 06:13:36;;;;;;;;;18.40;16.40;;;;;19.44;52.50;98862.91;6174455;28;99320;-70
2021/10/06 06:16:39;;;;;;;;;19.00;19.00;;;;;19.49;52.66;98853.84;6186160;28;98093;-69
2021/10/06 06:19:43;;;;;;;;;16.00;15.50;;;;;19.51;52.54;98860.66;6187126;28;96841;-68
2021/10/06 06:22:46;;;;;;;;;19.00;17.00;;;;;19.51;52.45;98855.19;6187305;28;96529;-71
2021/10/06 06:25:50;;;;;;;;;17.50;16.50;;;;;19.53;52.96;98861.22;6171268;28;97491;-70
2021/10/06 06:28:55;;;;;;;;;16.00;16.00;;;;;19.56;52.20;98868.84;6171115;28;96895;-70
2021/10/06 06:31:58;;;;;;;;;19.00;17.00;;;;;19.54;51.53;98870.25;6186959;28;96537;-68
2021/10/06 06:35:02;;;;;;;;;17.00;15.00;;;;;19.53;51.65;98863.94;6171572;28;96846;-70
2021/10/06 06:38:05;;;;;;;;;16.00;14.00;;;;;19.59;52.05;98851.06;6166140;28;98111;-70
2021/10/06 06:41:09;;;;;;;;;16.00;16.00;;;;;19.53;51.88;98863.94;6183769;28;96817;-70
2021/10/06 06:44:13;;;;;;;;;19.00;16.00;;;;;19.68;51.58;98874.81;6172970;28;97496;-65
2021/10/06 06:47:17;;;;;;;;;15.80;14.00;;;;;19.71;51.50;98878.91;6180674;28;96701;-67
2021/10/06 06:50:20;;;;;;;;;17.80;15.80;;;;;19.67;51.44;98886.03;6187191;28;97489;-68
2021/10/06 06:53:26;;;;;;;;;17.80;16.00;;;;;19.67;51.65;98895.06;6163888;28;97603;-69
2021/10/06 06:56:30;;;;;;;;;17.00;16.00;;;;;19.56;52.02;98893.47;6186396;28;96593;-68
2021/10/06 06:59:34;;;;;;;;;15.80;15.00;;;;;19.57;52.67;98895.09;6159774;28;96876;-67
2021/10/06 07:02:38;;;;;;;;;16.00;15.40;;;;;19.58;53.35;98887.72;6153421;28;96620;-69
2021/10/06 07:05:41;;;;;;;;;16.25;14.50;;;;;19.61;53.24;98898.09;6157394;28;98601;-69
2021/10/06 07:08:47;;;;;;;;;16.00;15.80;;;;;19.54;52.38;98886.66;6152989;28;97739;-70
2021/10/06 07:11:51;;;;;;;;;17.00;16.00;;;;;19.61;53.23;98901.66;6166582;28;98624;-69
2021/10/06 07:14:55;;;;;;;;;16.00;15.60;;;;;19.60;53.02;98913.66;6178506;28;96484;-69
2021/10/06 07:18:01;;;;;;;;;18.00;17.00;;;;;19.62;53.18;98921.59;6204191;28;96438;-71
2021/10/06 07:21:04;;;;;;;;;16.00;15.00;;;;;19.54;52.50;98923.03;6181080;28;98408;-69
2021/10/06 07:24:07;;;;;;;;;15.75;14.75;;;;;19.32;52.72;98906.91;6173675;28;96467;-68
2021/10/06 07:27:11;;;;;;;;;15.00;14.75;;;;;19.49;53.30;98922.22;6177734;28;96851;-65
2021/10/06 07:30:16;;;;;;;;;17.00;16.75;;;;;19.55;53.63;98921.09;6158103;28;97802;-67
2021/10/06 07:33:19;;;;;;;;;15.00;15.00;;;;;19.64;53.84;98938.56;6196577;28;96597;-67
2021/10/06 07:36:24;;;;;;;;;19.00;17.00;;;;;19.72;53.67;98925.13;6194196;28;96793;-70
2021/10/06 07:39:27;;;;;;;;;18.00;16.00;;;;;19.80;53.90;98920.97;6188902;28;97193;-70
2021/10/06 07:42:30;;;;;;;;;17.80;16.00;;;;;19.89;53.37;98925.56;6175030;28;96548;-68
2021/10/06 07:45:35;;;;;;;;;16.60;15.60;;;;;19.94;53.65;98935.69;6201158;28;98118;-69
2021/10/06 07:48:39;;;;;;;;;16.80;15.00;;;;;19.74;53.45;98917.44;6182899;28;97648;-68
2021/10/06 07:51:43;;;;;;;;;19.40;18.40;;;;;19.91;53.26;98941.72;6187659;28;97209;-68
2021/10/06 07:54:46;;;;;;;;;14.00;13.00;;;;;19.93;53.11;98944.19;6184875;28;97358;-68
2021/10/06 07:57:49;;;;;;;;;18.80;16.00;;;;;20.01;53.04;98951.81;6169872;28;99557;-70
2021/10/06 08:00:54;;;;;;;;;19.50;18.00;;;;;20.06;52.21;98951.78;6199756;28;97357;-69
2021/10/06 08:03:57;;;;;;;;;19.00;16.00;;;;;20.14;52.47;98956.66;6187675;28;97720;-69
2021/10/06 08:07:01;;;;;;;;;20.40;18.00;;;;;20.19;53.09;98960.19;6194912;28;96498;-71
2021/10/06 08:10:05;;;;;;;;;18.00;16.50;;;;;20.22;53.07;98956.06;6188341;28;97375;-70
2021/10/06 08:13:09;;;;;;;;;22.00;19.00;;;;;20.24;53.25;98943.72;6194881;28;97170;-67
2021/10/06 08:16:18;;;;;;;;;15.00;14.60;;;;;20.27;53.45;98950.56;6161032;28;97227;-68
2021/10/06 08:19:21;;;;;;;;;20.00;18.00;;;;;20.30;53.53;98953.59;6191811;28;97541;-71
2021/10/06 08:22:24;;;;;;;;;17.00;17.00;;;;;20.41;53.83;98964.47;6169856;28;97527;-70
2021/10/06 08:25:29;;;;;;;;;19.00;17.00;;;;;20.41;53.21;98968.03;6168731;28;97619;-66
2021/10/06 08:28:32;;;;;;;;;19.00;18.00;;;;;20.31;53.74;98968.91;6190769;28;96716;-69
2021/10/06 08:31:37;;;;;;;;;16.00;15.00;;;;;20.28;54.03;98974.13;6189294;28;96679;-65
2021/10/06 08:34:40;;;;;;;;;19.00;18.00;;;;;20.33;54.47;98973.28;6191907;28;97304;-67
2021/10/06 08:37:44;;;;;;;;;19.00;17.00;;;;;20.33;54.02;98965.09;6166782;28;98317;-67
2021/10/06 08:40:48;;;;;;;;;21.00;18.00;;;;;20.39;53.94;98969.41;6184149;28;97603;-67
2021/10/06 08:43:51;;;;;;;;;21.00;18.00;;;;;20.42;54.26;98969.69;6189750;28;97343;-67
2021/10/06 08:46:56;;;;;;;;;18.00;17.00;;;;;20.50;54.59;98969.06;6174601;28;97926;-68
2021/10/06 08:49:59;;;;;;;;;20.75;18.75;;;;;20.55;54.92;98963.56;6164829;28;96697;-70
2021/10/06 08:53:03;;;;;;;;;21.00;19.00;;;;;20.66;54.46;98964.31;6189784;28;97840;-67
2021/10/06 08:56:06;;;;;;;;;18.00;16.00;;;;;20.75;54.36;98960.66;6207596;28;97458;-71
2021/10/06 08:59:09;;;;;;;;;20.00;18.00;;;;;20.84;54.37;98963.59;6165152;28;97429;-70
2021/10/06 09:02:16;;;;;;;;;19.75;17.25;;;;;20.88;54.27;98967.41;6170454;28;99069;-67
2021/10/06 09:05:23;;;;;;;;;19.33;15.67;;;;;20.97;54.08;98975.81;6189877;28;97268;-68
2021/10/06 09:08:26;;;;;;;;;17.60;17.20;;;;;21.00;53.88;98978.81;6171887;28;96885;-68
2021/10/06 09:11:33;;;;;;;;;18.00;17.60;;;;;20.99;54.10;98977.19;6187155;28;97036;-70
2021/10/06 09:14:41;;;;;;;;;21.00;16.75;;;;;20.97;53.27;98984.84;6185696;28;96758;-69
2021/10/06 09:17:54;;;;;;;;;19.20;18.20;;;;;21.03;53.83;98982.91;6172808;28;97247;-68
2021/10/06 09:20:59;;;;;;;;;20.00;19.00;;;;;21.07;54.21;98992.19;6178581;28;97745;-69
2021/10/06 09:24:03;;;;;;;;;18.80;18.00;;;;;21.06;53.78;98994.09;6174499;28;96437;-70
2021/10/06 09:27:07;;;;;;;;;22.00;19.00;;;;;21.07;53.54;98993.00;6185215;28;97914;-71
2021/10/06 09:30:13;;;;;;;;;20.20;18.60;;;;;21.07;53.79;98992.19;6185093;28;97279;-71
2021/10/06 09:33:45;;;;;;;;;23.00;21.60;;;;;20.74;53.74;98944.50;6191086;28;96736;-69
2021/10/06 09:36:48;;;;;;;;;27.80;23.40;;;;;21.03;53.82;98999.34;6186989;28;96700;-71
2021/10/06 09:39:52;;;;;;;;;27.00;25.00;;;;;20.94;53.52;98992.84;6186813;28;97193;-70
2021/10/06 09:42:57;;;;;;;;;26.00;24.20;;;;;20.95;53.12;98987.09;6188286;28;97865;-69
2021/10/06 09:46:01;;;;;;;;;22.80;19.80;;;;;21.00;53.40;98987.03;6188107;28;96656;-69
2021/10/06 09:49:16;;;;;;;;;21.00;20.75;;;;;20.99;53.40;98987.31;6163543;28;96681;-70
2021/10/06 09:52:21;;;;;;;;;22.00;20.00;;;;;21.00;53.49;98983.50;6182096;28;96667;-68
2021/10/06 09:55:33;;;;;;;;;23.20;21.00;;;;;20.88;52.30;98986.59;6183761;28;97031;-70
2021/10/06 09:58:36;;;;;;;;;22.00;21.00;;;;;20.80;52.26;98989.94;6154233;28;99020;-69
2021/10/06 10:01:41;;;;;;;;;20.00;19.00;;;;;20.78;52.42;99008.59;6185557;28;98218;-69
2021/10/06 10:04:46;;;;;;;;;21.60;21.00;;;;;20.68;52.88;99001.25;6186358;28;97537;-70
2021/10/06 10:07:51;;;;;;;;;24.00;23.00;;;;;20.60;52.60;99007.34;6195495;28;98020;-71
2021/10/06 10:10:55;;;;;;;;;24.50;23.50;;;;;20.56;53.14;99011.75;6188764;28;96817;-72
2021/10/06 10:13:58;;;;;;;;;20.00;20.00;;;;;20.49;53.36;99008.50;6160273;28;97523;-71
2021/10/06 10:17:02;;;;;;;;;22.40;21.40;;;;;20.54;53.70;99008.47;6161699;28;97147;-71
2021/10/06 10:20:10;;;;;;;;;21.00;19.80;;;;;20.42;53.45;98994.31;6190870;28;97532;-72
2021/10/06 10:23:18;;;;;;;;;24.00;21.75;;;;;20.55;53.81;99014.78;6192466;28;97077;-73
2021/10/06 10:26:25;;;;;;;;;24.25;22.75;;;;;20.51;53.52;99014.53;6186353;28;97058;-70
2021/10/06 10:29:39;;;;;;;;;26.00;23.00;;;;;20.50;54.30;99009.31;6171963;28;97609;-69
2021/10/06 10:32:44;;;;;;;;;24.60;22.40;;;;;20.57;54.50;99012.59;6186074;28;96631;-71
2021/10/06 10:35:49;;;;;;;;;22.00;20.00;;;;;20.60;54.27;99003.78;6190278;28;97097;-69
2021/10/06 10:38:52;;;;;;;;;23.60;21.40;;;;;20.60;54.07;98998.31;6187734;28;97643;-67
2021/10/06 10:41:58;;;;;;;;;20.80;19.00;;;;;20.68;54.38;98998.50;6180679;28;97834;-68
2021/10/06 10:45:37;;;;;;;;;23.00;19.00;;;;;20.81;54.46;99001.72;6194263;28;96697;-67
2021/10/06 10:49:01;;;;;;;;;24.00;23.00;;;;;20.85;54.40;98989.09;6188427;28;97575;-69
2021/10/06 10:52:05;;;;;;;;;22.20;19.60;;;;;20.89;54.59;99004.66;6189754;28;97892;-69
2021/10/06 10:55:09;;;;;;;;;21.00;19.00;;;;;20.93;54.52;99007.66;6185856;28;96617;-70
2021/10/06 10:58:28;;;;;;;;;24.00;22.60;;;;;20.99;54.48;99006.50;6186008;28;97362;-70
2021/10/06 11:01:40;;;;;;;;;20.60;19.00;;;;;21.09;54.33;99003.69;6162923;28;98464;-68
2021/10/06 11:04:46;;;;;;;;;21.20;19.80;;;;;21.16;54.01;99012.41;6165636;28;97755;-66
2021/10/06 11:07:52;;;;;;;;;22.25;22.00;;;;;21.13;54.00;99007.47;6165536;28;98278;-69
2021/10/06 11:11:30;;;;;;;;;20.00;19.00;;;;;21.12;53.84;99016.81;6183562;28;97073;-68
2021/10/06 11:14:34;;;;;;;;;23.50;21.50;;;;;21.07;53.92;99025.06;6146983;28;98137;-69
2021/10/06 11:18:18;;;;;;;;;25.75;23.75;;;;;21.04;54.28;99020.19;6183366;28;96794;-67
2021/10/06 11:21:32;;;;;;;;;21.00;20.00;;;;;21.02;54.43;99003.19;6183066;28;97570;-69
2021/10/06 11:24:38;;;;;;;;;24.40;21.60;;;;;21.17;54.07;99009.41;6183594;28;97273;-66
2021/10/06 11:27:46;;;;;;;;;20.80;20.00;;;;;21.29;54.20;98998.06;6183574;28;96606;-67
2021/10/06 11:30:54;;;;;;;;;21.50;19.50;;;;;21.39;53.66;99003.44;6166233;28;97435;-66
2021/10/06 11:33:59;;;;;;;;;22.00;21.00;;;;;21.51;53.51;99001.13;6150417;28;98628;-67
2021/10/06 11:37:03;;;;;;;;;23.40;19.40;;;;;21.56;52.28;98997.50;6183733;28;97204;-68
2021/10/06 11:40:11;;;;;;;;;23.00;19.00;;;;;21.54;52.23;98983.28;6167226;28;96715;-68
2021/10/06 11:43:14;;;;;;;;;20.60;18.00;;;;;21.61;52.57;99009.22;6183974;28;97306;-66
2021/10/06 11:46:21;;;;;;;;;20.00;18.25;;;;;21.64;52.58;99002.38;6178789;28;97576;-70
2021/10/06 11:49:28;;;;;;;;;18.00;17.80;;;;;21.64;52.61;99001.53;6145103;28;98356;-69
2021/10/06 11:52:31;;;;;;;;;20.75;18.00;;;;;21.67;52.69;99007.25;6173196;28;97579;-72
2021/10/06 11:55:47;;;;;;;;;18.20;16.20;;;;;21.71;52.14;98999.25;6156960;28;97268;-69
2021/10/06 11:58:51;;;;;;;;;18.00;17.00;;;;;21.66;52.58;99008.34;6159271;28;98750;-70
2021/10/06 12:01:56;;;;;;;;;16.60;16.00;;;;;21.54;50.44;99005.22;6176099;28;97478;-67
2021/10/06 12:05:05;;;;;;;;;17.40;15.00;;;;;21.47;51.60;98997.31;6177777;28;97232;-69
2021/10/06 12:08:09;;;;;;;;;14.00;13.80;;;;;21.48;51.73;98992.66;6178616;28;97572;-69
2021/10/06 12:11:15;;;;;;;;;18.25;17.00;;;;;21.44;51.48;98983.38;6189932;28;96638;-68
2021/10/06 12:14:22;;;;;;;;;16.50;16.00;;;;;21.44;51.25;98991.59;6187675;28;96711;-69
2021/10/06 12:17:27;;;;;;;;;15.40;15.00;;;;;21.41;50.52;99003.13;6188614;28;97467;-69
2021/10/06 12:20:30;;;;;;;;;17.20;16.80;;;;;21.39;51.45;98997.97;6188679;28;97328;-70
2021/10/06 12:23:33;;;;;;;;;17.50;16.50;;;;;21.35;50.61;98998.84;6174771;28;99780;-70
2021/10/06 12:26:38;;;;;;;;;17.00;15.40;;;;;21.31;51.45;99005.97;6188834;28;97590;-70
2021/10/06 12:29:42;;;;;;;;;21.20;18.60;;;;;21.26;51.04;98997.81;6183978;28;99575;-67
2021/10/06 12:32:48;;;;;;;;;19.40;17.40;;;;;21.19;51.50;99003.63;6179779;28;97011;-68
2021/10/06 12:35:54;;;;;;;;;16.40;16.00;;;;;21.18;51.86;99002.81;6175751;28;98415;-68
2021/10/06 12:38:57;;;;;;;;;18.20;18.00;;;;;21.15;51.65;98999.84;6188300;28;97622;-66
2021/10/06 12:42:06;;;;;;;;;18.00;16.60;;;;;21.10;51.22;99008.91;6184064;28;96657;-69
2021/10/06 12:45:17;;;;;;;;;20.00;18.00;;;;;21.10;51.40;99011.63;6188788;28;96521;-69
2021/10/06 12:48:32;;;;;;;;;18.80;17.80;;;;;21.07;51.46;99014.09;6188462;28;96575;-70
2021/10/06 12:51:35;;;;;;;;;17.40;16.00;;;;;21.04;52.19;99021.00;6175420;28;96467;-69
2021/10/06 12:54:39;;;;;;;;;19.80;18.40;;;;;21.00;51.93;99014.47;6184503;28;97476;-67
2021/10/06 12:57:44;;;;;;;;;18.00;17.60;;;;;20.94;52.18;99007.38;6184817;28;96769;-69
2021/10/06 13:00:47;;;;;;;;;19.00;18.00;;;;;20.97;52.40;99020.50;6187743;28;96687;-69
2021/10/06 13:04:12;;;;;;;;;19.60;18.40;;;;;20.93;52.62;99019.44;6186334;28;96727;-69
2021/10/06 13:07:16;;;;;;;;;19.00;17.75;;;;;20.86;52.50;99015.38;6184410;28;97583;-68
2021/10/06 13:10:19;;;;;;;;;18.00;17.40;;;;;20.80;53.08;99022.00;6184260;28;98028;-69
2021/10/06 13:13:24;;;;;;;;;20.00;18.00;;;;;20.86;53.54;99018.97;6167807;28;96744;-68
2021/10/06 13:16:27;;;;;;;;;23.00;20.60;;;;;20.84;53.46;99015.66;6167062;28;96679;-69
2021/10/06 13:19:30;;;;;;;;;19.00;18.00;;;;;20.85;53.55;99005.53;6165926;28;97854;-69
2021/10/06 13:22:34;;;;;;;;;16.60;16.00;;;;;20.87;53.43;99015.09;6185605;28;97590;-68
2021/10/06 13:25:38;;;;;;;;;18.40;16.80;;;;;20.87;52.60;99027.97;6185495;28;97297;-68
2021/10/06 13:28:43;;;;;;;;;15.40;15.00;;;;;20.74;52.25;99035.75;6162857;28;97599;-69
2021/10/06 13:31:47;;;;;;;;;17.00;14.00;;;;;20.72;52.31;99028.94;6165222;28;96860;-69
2021/10/06 13:34:50;;;;;;;;;18.00;16.00;;;;;20.67;52.26;99037.16;6185221;28;97555;-68
2021/10/06 13:37:53;;;;;;;;;16.20;16.00;;;;;20.56;52.00;99039.16;6166888;28;97723;-69
2021/10/06 13:40:57;;;;;;;;;16.00;16.00;;;;;20.58;52.47;99039.66;6184563;28;97522;-69
2021/10/06 13:44:01;;;;;;;;;18.60;17.00;;;;;20.50;52.23;99051.22;6183172;28;97520;-71
2021/10/06 13:47:05;;;;;;;;;17.80;16.40;;;;;20.47;52.27;99046.31;6184971;28;97030;-71
2021/10/06 13:50:09;;;;;;;;;19.40;17.00;;;;;20.45;52.42;99042.22;6169895;28;96748;-73
2021/10/06 13:53:12;;;;;;;;;21.00;18.00;;;;;20.44;53.07;99043.31;6169321;28;96821;-71
2021/10/06 13:56:18;;;;;;;;;19.80;17.80;;;;;20.40;53.02;99045.81;6185562;28;97481;-71
2021/10/06 13:59:22;;;;;;;;;17.75;16.75;;;;;20.37;53.18;99046.38;6184791;28;97484;-67
2021/10/06 14:02:25;;;;;;;;;17.00;17.00;;;;;20.36;53.12;99052.94;6184533;28;97660;-67
2021/10/06 14:05:30;;;;;;;;;17.00;15.25;;;;;20.29;53.71;99052.38;6183907;28;96782;-67
2021/10/06 14:08:35;;;;;;;;;18.00;16.00;;;;;20.27;53.70;99060.09;6185491;28;96581;-65
2021/10/06 14:11:39;;;;;;;;;18.75;17.75;;;;;20.27;53.75;99060.09;6182068;28;97003;-65